EDT,Max TemperatureF,Mean TemperatureF,Min TemperatureF,Max Dew PointF,MeanDew PointF,Min DewpointF,Max Humidity, Mean Humidity, Min Humidity, Max Sea Level PressureIn, Mean Sea Level PressureIn, Min Sea Level PressureIn, Max VisibilityMiles, Mean VisibilityMiles, Min VisibilityMiles, Max Wind SpeedMPH, Mean Wind SpeedMPH, Max Gust SpeedMPH,PrecipitationIn, CloudCover, Events, WindDirDegrees
2011-3-1,41,26,10,30,18,7,93,67,29,30.22,30.05,29.86,10,10,10,23,9,39,0.00,2,,184
2011-3-2,28,20,12,19,8,3,79,63,50,30.55,30.40,30.04,10,10,2,28,16,39,0.00,6,Snow,311
2011-3-3,26,17,8,14,8,3,85,66,49,30.58,30.47,30.25,10,10,7,17,6,21,0.00,6,,119
2011-3-4,30,27,24,28,22,12,100,82,51,30.22,30.13,30.07,10,7,1,10,5,,0.00,8,Snow,94
2011-3-5,30,27,23,28,25,18,93,86,69,30.23,30.14,30.08,10,9,7,21,13,28,0.00,6,,1
2011-3-6,23,16,8,12,8,1,79,69,58,30.40,30.34,30.27,10,10,10,10,6,16,0.00,0,,41
2011-3-7,33,22,12,21,13,7,79,66,48,30.30,30.28,30.24,10,10,10,12,6,,0.00,4,,111
2011-3-8,35,30,24,28,23,19,93,80,52,30.37,30.34,30.30,10,8,1,10,7,,0.00,4,Snow,86
2011-3-9,32,30,28,32,28,21,100,88,74,30.27,30.02,29.84,10,6,0,18,10,21,0.00,8,Snow,83
2011-3-10,32,31,30,32,28,25,100,89,80,30.04,29.95,29.84,10,8,2,18,10,26,0.00,8,Snow,347
2011-3-11,35,32,30,28,27,25,87,82,75,29.98,29.93,29.87,10,10,10,17,13,25,0.00,5,,324
2011-3-12,33,30,26,32,28,23,100,90,75,29.81,29.66,29.58,10,6,0,12,6,,0.00,7,Snow,101
2011-3-13,32,28,24,30,24,19,93,79,69,30.43,30.24,29.97,10,10,10,13,8,18,0.00,6,,327
2011-3-14,37,24,12,27,18,10,100,81,56,30.48,30.43,30.35,10,10,7,10,4,,0.00,0,,193
2011-3-15,44,32,19,28,22,18,100,77,39,30.33,30.23,30.07,10,10,10,8,5,,0.00,0,,120
2011-3-16,48,37,26,36,29,23,93,75,58,30.01,29.98,29.95,10,9,5,14,4,16,0.00,0,,220
2011-3-17,57,50,42,48,39,32,94,68,59,29.97,29.79,29.60,10,9,3,18,11,30,0.00,4,Rain,186
2011-3-18,41,34,28,39,33,23,93,88,75,30.26,30.02,29.78,10,10,4,16,11,25,0.00,6,,280
2011-3-19,32,29,26,23,22,21,80,75,64,30.56,30.48,30.35,10,10,10,12,7,18,0.00,7,,323
2011-3-20,41,32,24,32,25,19,87,73,42,30.53,30.35,30.04,10,10,10,20,8,30,0.00,5,,125
2011-3-21,39,36,33,37,35,34,100,96,87,30.05,29.94,29.88,10,5,0,15,7,21,0.00,8,Fog-Rain,253
2011-3-22,35,34,32,32,29,25,93,83,70,30.23,30.18,30.10,10,10,10,17,7,24,0.00,7,,43
2011-3-23,30,24,17,18,13,7,93,70,43,29.99,29.89,29.83,10,5,0,24,17,34,0.00,8,Snow,63
2011-3-24,24,19,14,10,7,3,68,58,46,30.17,30.11,29.99,10,10,10,13,9,18,0.00,0,,5
2011-3-25,23,18,12,10,8,3,92,65,46,30.19,30.16,30.14,10,10,10,12,7,18,0.00,3,,6
2011-3-26,24,15,6,12,8,0,92,63,34,30.30,30.26,30.22,10,10,7,12,6,,0.00,1,,5
2011-3-27,24,15,6,12,8,3,92,66,46,30.30,30.27,30.23,10,10,10,14,7,18,0.00,1,,356
2011-3-28,32,21,10,19,14,7,92,68,51,30.28,30.26,30.24,10,10,10,13,7,16,0.00,1,,317
2011-3-29,35,27,19,27,20,14,80,66,55,30.34,30.31,30.26,10,10,10,13,7,,0.00,0,,299
2011-3-30,37,27,17,27,20,12,100,78,38,30.27,30.18,30.04,10,10,10,9,2,,0.00,0,,318
2011-3-31,41,32,23,28,24,19,100,77,45,29.97,29.88,29.76,10,10,7,8,2,,0.00,3,,320